CES238 RKPK-ZSSS
Flight info
| Callsign | CES238 |
|---|---|
| Flight time | 1h 43m |
| Altitude | 32000 |
| Route | BURIM3 ENGOT Y572 CJU Z82 PANSI Y711 PONIK A593 LAMEN/K0832F280 A593 AKARA/K0828S0840 A593 PUD PUD61A |
| Aircraft | A20N/M-SDE2E3FGHIRWXY/LB1 |
Departure
| Time | 2026-04-27 06:25 |
|---|---|
| Airport | Gimhae International Airport (RKPK) |
Arrival
| Time | 2026-04-27 08:09 |
|---|---|
| Airport | Shanghai Hongqiao International Airport (ZSSS) |
| Time | Latitude | Longitude | Altitude | Speed | Heading |
|---|---|---|---|---|---|
| 2026-04-27 05:50 | 35.17307 | 128.94569 | 18 ft | 0 kts | 113° |
| 2026-04-27 06:09 | 35.17308 | 128.94565 | 18 ft | 2 kts | 113° |
| 2026-04-27 06:09 | 35.17314 | 128.94548 | 18 ft | 2 kts | 112° |
| 2026-04-27 06:09 | 35.17320 | 128.94531 | 18 ft | 1 kts | 113° |
| 2026-04-27 06:10 | 35.17324 | 128.94519 | 18 ft | 2 kts | 100° |
| 2026-04-27 06:10 | 35.17323 | 128.94502 | 18 ft | 2 kts | 75° |
| 2026-04-27 06:10 | 35.17317 | 128.94485 | 18 ft | 2 kts | 50° |
| 2026-04-27 06:10 | 35.17306 | 128.94473 | 18 ft | 2 kts | 26° |
| 2026-04-27 06:11 | 35.17292 | 128.94469 | 18 ft | 2 kts | 2° |
| 2026-04-27 06:11 | 35.17284 | 128.94469 | 18 ft | 1 kts | 349° |
| 2026-04-27 06:11 | 35.17280 | 128.94469 | 18 ft | 0 kts | 353° |
| 2026-04-27 06:12 | 35.17281 | 128.94469 | 18 ft | 0 kts | 353° |
| 2026-04-27 06:16 | 35.17283 | 128.94469 | 18 ft | 1 kts | 355° |
| 2026-04-27 06:17 | 35.17298 | 128.94467 | 18 ft | 3 kts | 355° |
| 2026-04-27 06:17 | 35.17329 | 128.94464 | 18 ft | 5 kts | 354° |
| 2026-04-27 06:17 | 35.17380 | 128.94458 | 17 ft | 9 kts | 354° |
| 2026-04-27 06:17 | 35.17449 | 128.94449 | 17 ft | 11 kts | 354° |
| 2026-04-27 06:18 | 35.17533 | 128.94438 | 17 ft | 13 kts | 354° |
| 2026-04-27 06:18 | 35.17632 | 128.94424 | 16 ft | 15 kts | 354° |
| 2026-04-27 06:18 | 35.17701 | 128.94400 | 15 ft | 11 kts | 322° |
| 2026-04-27 06:18 | 35.17744 | 128.94313 | 15 ft | 12 kts | 295° |
| 2026-04-27 06:19 | 35.17777 | 128.94238 | 15 ft | 9 kts | 313° |
| 2026-04-27 06:19 | 35.17843 | 128.94209 | 15 ft | 11 kts | 354° |
| 2026-04-27 06:19 | 35.17927 | 128.94199 | 15 ft | 12 kts | 354° |
| 2026-04-27 06:19 | 35.18023 | 128.94186 | 15 ft | 14 kts | 354° |
| 2026-04-27 06:20 | 35.18127 | 128.94174 | 15 ft | 15 kts | 354° |
| 2026-04-27 06:20 | 35.18240 | 128.94159 | 15 ft | 16 kts | 354° |
| 2026-04-27 06:20 | 35.18357 | 128.94144 | 16 ft | 17 kts | 353° |
| 2026-04-27 06:20 | 35.18477 | 128.94128 | 16 ft | 17 kts | 354° |
| 2026-04-27 06:21 | 35.18604 | 128.94112 | 16 ft | 18 kts | 353° |
| 2026-04-27 06:21 | 35.18736 | 128.94095 | 16 ft | 19 kts | 354° |
| 2026-04-27 06:21 | 35.18871 | 128.94078 | 16 ft | 19 kts | 354° |
| 2026-04-27 06:21 | 35.19014 | 128.94060 | 15 ft | 20 kts | 354° |
| 2026-04-27 06:22 | 35.19160 | 128.94040 | 15 ft | 21 kts | 354° |
| 2026-04-27 06:22 | 35.19302 | 128.94022 | 12 ft | 16 kts | 352° |
| 2026-04-27 06:22 | 35.19375 | 128.94006 | 12 ft | 10 kts | 338° |
| 2026-04-27 06:22 | 35.19407 | 128.93944 | 13 ft | 9 kts | 263° |
| 2026-04-27 06:23 | 35.19400 | 128.93867 | 14 ft | 8 kts | 264° |
| 2026-04-27 06:23 | 35.19395 | 128.93791 | 15 ft | 9 kts | 268° |
| 2026-04-27 06:23 | 35.19392 | 128.93710 | 16 ft | 9 kts | 264° |
| 2026-04-27 06:23 | 35.19386 | 128.93628 | 17 ft | 9 kts | 264° |
| 2026-04-27 06:24 | 35.19379 | 128.93556 | 17 ft | 7 kts | 262° |
| 2026-04-27 06:24 | 35.19345 | 128.93518 | 18 ft | 7 kts | 182° |
| 2026-04-27 06:24 | 35.19320 | 128.93521 | 18 ft | 0 kts | 174° |
| 2026-04-27 06:25 | 35.19171 | 128.93541 | 24 ft | 55 kts | 174° |
| 2026-04-27 06:25 | 35.18568 | 128.93620 | 42 ft | 117 kts | 175° |
| 2026-04-27 06:25 | 35.17597 | 128.93751 | 121 ft | 157 kts | 172° |
| 2026-04-27 06:25 | 35.16512 | 128.93903 | 731 ft | 156 kts | 174° |
| 2026-04-27 06:26 | 35.15432 | 128.93973 | 1346 ft | 158 kts | 175° |
| 2026-04-27 06:26 | 35.14334 | 128.94023 | 1949 ft | 158 kts | 176° |
| 2026-04-27 06:26 | 35.13232 | 128.94070 | 2475 ft | 160 kts | 177° |
| 2026-04-27 06:26 | 35.12119 | 128.94121 | 3000 ft | 161 kts | 178° |
| 2026-04-27 06:27 | 35.10985 | 128.94171 | 3440 ft | 168 kts | 178° |
| 2026-04-27 06:27 | 35.09773 | 128.94225 | 3791 ft | 182 kts | 179° |
| 2026-04-27 06:27 | 35.08443 | 128.94284 | 4137 ft | 200 kts | 179° |
| 2026-04-27 06:27 | 35.06986 | 128.94348 | 4491 ft | 219 kts | 179° |
| 2026-04-27 06:28 | 35.05396 | 128.94423 | 4791 ft | 240 kts | 179° |
| 2026-04-27 06:28 | 35.03702 | 128.94502 | 5139 ft | 246 kts | 179° |
| 2026-04-27 06:28 | 35.01971 | 128.94583 | 5683 ft | 254 kts | 179° |
| 2026-04-27 06:28 | 35.00207 | 128.94667 | 6508 ft | 254 kts | 180° |
| 2026-04-27 06:29 | 34.98424 | 128.94753 | 7226 ft | 262 kts | 180° |
| 2026-04-27 06:29 | 34.96564 | 128.94836 | 7745 ft | 278 kts | 180° |
| 2026-04-27 06:29 | 34.94588 | 128.94930 | 8415 ft | 286 kts | 181° |
| 2026-04-27 06:29 | 34.92600 | 128.94987 | 9174 ft | 288 kts | 187° |
| 2026-04-27 06:30 | 34.90705 | 128.94353 | 9881 ft | 284 kts | 213° |
| 2026-04-27 06:30 | 34.89225 | 128.92818 | 10543 ft | 284 kts | 236° |
| 2026-04-27 06:30 | 34.88358 | 128.90607 | 10902 ft | 296 kts | 258° |
| 2026-04-27 06:30 | 34.87925 | 128.88098 | 11239 ft | 313 kts | 260° |
| 2026-04-27 06:31 | 34.87490 | 128.85547 | 11544 ft | 330 kts | 259° |
| 2026-04-27 06:31 | 34.87000 | 128.82753 | 11839 ft | 346 kts | 259° |
| 2026-04-27 06:31 | 34.86474 | 128.79810 | 12113 ft | 362 kts | 259° |
| 2026-04-27 06:31 | 34.85925 | 128.76782 | 12361 ft | 376 kts | 259° |
| 2026-04-27 06:32 | 34.85344 | 128.73598 | 12685 ft | 388 kts | 259° |
| 2026-04-27 06:32 | 34.84752 | 128.70367 | 13216 ft | 393 kts | 259° |
| 2026-04-27 06:32 | 34.84154 | 128.67120 | 13835 ft | 395 kts | 259° |
| 2026-04-27 06:32 | 34.83561 | 128.63899 | 14427 ft | 397 kts | 259° |
| 2026-04-27 06:33 | 34.82950 | 128.60594 | 15012 ft | 399 kts | 259° |
| 2026-04-27 06:33 | 34.82346 | 128.57332 | 15602 ft | 400 kts | 259° |
| 2026-04-27 06:33 | 34.81724 | 128.54063 | 16167 ft | 402 kts | 257° |
| 2026-04-27 06:33 | 34.80767 | 128.50868 | 16715 ft | 406 kts | 248° |
| 2026-04-27 06:34 | 34.79371 | 128.47853 | 17260 ft | 411 kts | 240° |
| 2026-04-27 06:34 | 34.77601 | 128.45106 | 17783 ft | 415 kts | 234° |
| 2026-04-27 06:34 | 34.75706 | 128.42452 | 18254 ft | 418 kts | 233° |
| 2026-04-27 06:34 | 34.73788 | 128.39804 | 18750 ft | 419 kts | 234° |
| 2026-04-27 06:35 | 34.71873 | 128.37161 | 19254 ft | 419 kts | 234° |
| 2026-04-27 06:35 | 34.69951 | 128.34503 | 19761 ft | 418 kts | 234° |
| 2026-04-27 06:35 | 34.68029 | 128.31845 | 20199 ft | 420 kts | 234° |
| 2026-04-27 06:35 | 34.66116 | 128.29195 | 20692 ft | 420 kts | 234° |
| 2026-04-27 06:36 | 34.64196 | 128.26538 | 21175 ft | 420 kts | 234° |
| 2026-04-27 06:36 | 34.62267 | 128.23866 | 21583 ft | 421 kts | 234° |
| 2026-04-27 06:36 | 34.60354 | 128.21219 | 22002 ft | 421 kts | 235° |
| 2026-04-27 06:36 | 34.58417 | 128.18539 | 22414 ft | 422 kts | 235° |
| 2026-04-27 06:37 | 34.56481 | 128.15861 | 22801 ft | 422 kts | 235° |
| 2026-04-27 06:37 | 34.54564 | 128.13214 | 23204 ft | 421 kts | 236° |
| 2026-04-27 06:37 | 34.52625 | 128.10542 | 23584 ft | 421 kts | 235° |
| 2026-04-27 06:37 | 34.50694 | 128.07878 | 24026 ft | 419 kts | 236° |
| 2026-04-27 06:38 | 34.48801 | 128.05269 | 24491 ft | 417 kts | 236° |
| 2026-04-27 06:38 | 34.46890 | 128.02641 | 24925 ft | 415 kts | 236° |
| 2026-04-27 06:38 | 34.44981 | 128.00012 | 25364 ft | 413 kts | 236° |
| 2026-04-27 06:38 | 34.43101 | 127.97427 | 25798 ft | 412 kts | 236° |
| 2026-04-27 06:39 | 34.41218 | 127.94841 | 26166 ft | 411 kts | 236° |
| 2026-04-27 06:39 | 34.39327 | 127.92240 | 26515 ft | 411 kts | 237° |
| 2026-04-27 06:39 | 34.37442 | 127.89655 | 26911 ft | 409 kts | 237° |
| 2026-04-27 06:39 | 34.35572 | 127.87090 | 27314 ft | 407 kts | 237° |
| 2026-04-27 06:40 | 34.33704 | 127.84528 | 27709 ft | 405 kts | 237° |
| 2026-04-27 06:40 | 34.31851 | 127.81988 | 28082 ft | 404 kts | 237° |
| 2026-04-27 06:40 | 34.29990 | 127.79443 | 28463 ft | 403 kts | 237° |
| 2026-04-27 06:40 | 34.28156 | 127.76933 | 28828 ft | 401 kts | 237° |
| 2026-04-27 06:41 | 34.26293 | 127.74388 | 29180 ft | 400 kts | 237° |
| 2026-04-27 06:41 | 34.24469 | 127.71899 | 29557 ft | 398 kts | 237° |
| 2026-04-27 06:41 | 34.22645 | 127.69418 | 29967 ft | 396 kts | 237° |
| 2026-04-27 06:41 | 34.20826 | 127.66942 | 30359 ft | 393 kts | 237° |
| 2026-04-27 06:42 | 34.19008 | 127.64473 | 30720 ft | 392 kts | 237° |
| 2026-04-27 06:42 | 34.17218 | 127.62035 | 31094 ft | 389 kts | 237° |
| 2026-04-27 06:42 | 34.15430 | 127.59609 | 31430 ft | 388 kts | 238° |
| 2026-04-27 06:42 | 34.13627 | 127.57159 | 31736 ft | 387 kts | 237° |
| 2026-04-27 06:43 | 34.11853 | 127.54749 | 32054 ft | 385 kts | 237° |
| 2026-04-27 06:43 | 34.10077 | 127.52338 | 32349 ft | 384 kts | 237° |
| 2026-04-27 06:43 | 34.08311 | 127.49943 | 32565 ft | 385 kts | 237° |
| 2026-04-27 06:43 | 34.06528 | 127.47523 | 32771 ft | 385 kts | 237° |
| 2026-04-27 06:44 | 34.04785 | 127.45164 | 32991 ft | 385 kts | 238° |
| 2026-04-27 06:44 | 34.02991 | 127.42737 | 33110 ft | 386 kts | 237° |
| 2026-04-27 06:44 | 34.01213 | 127.40326 | 33278 ft | 387 kts | 237° |
| 2026-04-27 06:44 | 33.99434 | 127.37921 | 33436 ft | 387 kts | 237° |
| 2026-04-27 06:45 | 33.97648 | 127.35513 | 33605 ft | 387 kts | 237° |
| 2026-04-27 06:45 | 33.95842 | 127.33076 | 33798 ft | 387 kts | 237° |
| 2026-04-27 06:45 | 33.94067 | 127.30685 | 33946 ft | 388 kts | 237° |
| 2026-04-27 06:45 | 33.92265 | 127.28261 | 33940 ft | 388 kts | 237° |
| 2026-04-27 06:46 | 33.88657 | 127.23405 | 33951 ft | 390 kts | 237° |
| 2026-04-27 06:46 | 33.85045 | 127.18546 | 33951 ft | 390 kts | 237° |
| 2026-04-27 06:47 | 33.81427 | 127.13689 | 33955 ft | 391 kts | 237° |
| 2026-04-27 06:47 | 33.77800 | 127.08824 | 33952 ft | 389 kts | 237° |
| 2026-04-27 06:48 | 33.74192 | 127.03996 | 33954 ft | 391 kts | 236° |
| 2026-04-27 06:48 | 33.70587 | 126.99179 | 33953 ft | 390 kts | 237° |
| 2026-04-27 06:49 | 33.66953 | 126.94328 | 33954 ft | 391 kts | 236° |
| 2026-04-27 06:49 | 33.63069 | 126.89671 | 33954 ft | 396 kts | 232° |
| 2026-04-27 06:50 | 33.59024 | 126.85185 | 33958 ft | 397 kts | 232° |
| 2026-04-27 06:50 | 33.55006 | 126.80723 | 33961 ft | 397 kts | 232° |
| 2026-04-27 06:51 | 33.50921 | 126.76199 | 33970 ft | 399 kts | 232° |
| 2026-04-27 06:51 | 33.46876 | 126.71729 | 33969 ft | 399 kts | 232° |
| 2026-04-27 06:52 | 33.42771 | 126.67197 | 33969 ft | 400 kts | 232° |
| 2026-04-27 06:52 | 33.38687 | 126.62696 | 33974 ft | 401 kts | 231° |
| 2026-04-27 06:53 | 33.34611 | 126.58214 | 33970 ft | 400 kts | 232° |
| 2026-04-27 06:53 | 33.30507 | 126.53700 | 33971 ft | 402 kts | 232° |
| 2026-04-27 06:54 | 33.26390 | 126.49176 | 33967 ft | 403 kts | 232° |
| 2026-04-27 06:54 | 33.22298 | 126.44683 | 33971 ft | 401 kts | 232° |
| 2026-04-27 06:55 | 33.18170 | 126.40156 | 33967 ft | 403 kts | 232° |
| 2026-04-27 06:55 | 33.14066 | 126.35654 | 33970 ft | 403 kts | 232° |
| 2026-04-27 06:56 | 33.09923 | 126.31123 | 33968 ft | 402 kts | 231° |
| 2026-04-27 06:56 | 33.05712 | 126.26706 | 33965 ft | 408 kts | 227° |
| 2026-04-27 06:57 | 33.01099 | 126.22753 | 33970 ft | 415 kts | 222° |
| 2026-04-27 06:57 | 32.96025 | 126.19331 | 33969 ft | 424 kts | 216° |
| 2026-04-27 06:58 | 32.87716 | 126.15317 | 33968 ft | 432 kts | 210° |
| 2026-04-27 06:59 | 32.82055 | 126.12879 | 33974 ft | 433 kts | 210° |
| 2026-04-27 06:59 | 32.76410 | 126.10459 | 33964 ft | 433 kts | 210° |
| 2026-04-27 07:00 | 32.70720 | 126.08025 | 33961 ft | 435 kts | 210° |
| 2026-04-27 07:00 | 32.65022 | 126.05587 | 33964 ft | 435 kts | 210° |
| 2026-04-27 07:01 | 32.59371 | 126.03176 | 33966 ft | 434 kts | 210° |
| 2026-04-27 07:01 | 32.53657 | 126.00739 | 33958 ft | 436 kts | 209° |
| 2026-04-27 07:02 | 32.47957 | 125.98312 | 33968 ft | 438 kts | 209° |
| 2026-04-27 07:02 | 32.42229 | 125.95890 | 33978 ft | 439 kts | 209° |
| 2026-04-27 07:03 | 32.36461 | 125.93448 | 33980 ft | 438 kts | 208° |
| 2026-04-27 07:03 | 32.30747 | 125.91036 | 33978 ft | 436 kts | 209° |
| 2026-04-27 07:04 | 32.25033 | 125.88621 | 33971 ft | 438 kts | 209° |
| 2026-04-27 07:04 | 32.19306 | 125.86204 | 33986 ft | 438 kts | 208° |
| 2026-04-27 07:05 | 32.13533 | 125.83773 | 33978 ft | 439 kts | 208° |
| 2026-04-27 07:05 | 32.08029 | 125.80911 | 33976 ft | 427 kts | 219° |
| 2026-04-27 07:06 | 32.03450 | 125.76671 | 33978 ft | 413 kts | 233° |
| 2026-04-27 07:06 | 31.99990 | 125.71384 | 33982 ft | 404 kts | 245° |
| 2026-04-27 07:07 | 31.97759 | 125.65429 | 33980 ft | 398 kts | 256° |
| 2026-04-27 07:07 | 31.96320 | 125.59173 | 33984 ft | 396 kts | 258° |
| 2026-04-27 07:08 | 31.94918 | 125.52924 | 33984 ft | 398 kts | 258° |
| 2026-04-27 07:08 | 31.93514 | 125.46653 | 33984 ft | 397 kts | 259° |
| 2026-04-27 07:09 | 31.92107 | 125.40371 | 33979 ft | 398 kts | 258° |
| 2026-04-27 07:09 | 31.90696 | 125.34084 | 33980 ft | 400 kts | 258° |
| 2026-04-27 07:10 | 31.89274 | 125.27768 | 33977 ft | 399 kts | 258° |
| 2026-04-27 07:10 | 31.87852 | 125.21460 | 33974 ft | 400 kts | 257° |
| 2026-04-27 07:11 | 31.86426 | 125.15170 | 33975 ft | 400 kts | 258° |
| 2026-04-27 07:11 | 31.85000 | 125.08871 | 33968 ft | 401 kts | 258° |
| 2026-04-27 07:12 | 31.83558 | 125.02529 | 33971 ft | 402 kts | 258° |
| 2026-04-27 07:12 | 31.82146 | 124.96197 | 33971 ft | 401 kts | 258° |
| 2026-04-27 07:13 | 31.80780 | 124.89853 | 33968 ft | 402 kts | 258° |
| 2026-04-27 07:13 | 31.79399 | 124.83469 | 33970 ft | 403 kts | 258° |
| 2026-04-27 07:14 | 31.78018 | 124.77112 | 33969 ft | 403 kts | 258° |
| 2026-04-27 07:14 | 31.77330 | 124.73946 | 33786 ft | 403 kts | 258° |
| 2026-04-27 07:14 | 31.76640 | 124.70771 | 33501 ft | 403 kts | 258° |
| 2026-04-27 07:14 | 31.75948 | 124.67596 | 33231 ft | 403 kts | 258° |
| 2026-04-27 07:15 | 31.75253 | 124.64420 | 32918 ft | 402 kts | 258° |
| 2026-04-27 07:15 | 31.74558 | 124.61244 | 32652 ft | 404 kts | 258° |
| 2026-04-27 07:15 | 31.73863 | 124.58067 | 32388 ft | 406 kts | 258° |
| 2026-04-27 07:15 | 31.73161 | 124.54858 | 32131 ft | 406 kts | 258° |
| 2026-04-27 07:16 | 31.72455 | 124.51653 | 32074 ft | 408 kts | 258° |
| 2026-04-27 07:16 | 31.71031 | 124.45179 | 32070 ft | 408 kts | 258° |
| 2026-04-27 07:17 | 31.69617 | 124.38782 | 32073 ft | 408 kts | 258° |
| 2026-04-27 07:17 | 31.68187 | 124.32320 | 32071 ft | 409 kts | 258° |
| 2026-04-27 07:18 | 31.66763 | 124.25911 | 32069 ft | 409 kts | 258° |
| 2026-04-27 07:18 | 31.65330 | 124.19455 | 32072 ft | 408 kts | 258° |
| 2026-04-27 07:19 | 31.63899 | 124.13028 | 32069 ft | 409 kts | 258° |
| 2026-04-27 07:19 | 31.62463 | 124.06600 | 32071 ft | 409 kts | 258° |
| 2026-04-27 07:20 | 31.61021 | 124.00170 | 32067 ft | 411 kts | 258° |
| 2026-04-27 07:20 | 31.59599 | 123.93691 | 32063 ft | 410 kts | 258° |
| 2026-04-27 07:21 | 31.58185 | 123.87211 | 32063 ft | 409 kts | 258° |
| 2026-04-27 07:21 | 31.56770 | 123.80748 | 32048 ft | 410 kts | 258° |
| 2026-04-27 07:22 | 31.55361 | 123.74321 | 32046 ft | 410 kts | 258° |
| 2026-04-27 07:22 | 31.53942 | 123.67886 | 32043 ft | 410 kts | 258° |
| 2026-04-27 07:23 | 31.52519 | 123.61434 | 32041 ft | 411 kts | 258° |
| 2026-04-27 07:23 | 31.51088 | 123.54965 | 32041 ft | 411 kts | 259° |
| 2026-04-27 07:24 | 31.49697 | 123.48462 | 32042 ft | 411 kts | 260° |
| 2026-04-27 07:24 | 31.48460 | 123.41948 | 32047 ft | 411 kts | 260° |
| 2026-04-27 07:25 | 31.47230 | 123.35470 | 32044 ft | 411 kts | 261° |
| 2026-04-27 07:25 | 31.45984 | 123.28934 | 32041 ft | 410 kts | 260° |
| 2026-04-27 07:26 | 31.44742 | 123.22423 | 32033 ft | 411 kts | 259° |
| 2026-04-27 07:26 | 31.43503 | 123.15952 | 32030 ft | 410 kts | 260° |
| 2026-04-27 07:26 | 31.42873 | 123.12673 | 31839 ft | 411 kts | 260° |
| 2026-04-27 07:27 | 31.42251 | 123.09431 | 31460 ft | 410 kts | 259° |
| 2026-04-27 07:27 | 31.41631 | 123.06206 | 31035 ft | 405 kts | 259° |
| 2026-04-27 07:27 | 31.41011 | 123.02995 | 30605 ft | 403 kts | 259° |
| 2026-04-27 07:27 | 31.40396 | 122.99812 | 30181 ft | 403 kts | 260° |
| 2026-04-27 07:28 | 31.39784 | 122.96638 | 29757 ft | 404 kts | 259° |
| 2026-04-27 07:28 | 31.39164 | 122.93430 | 29326 ft | 404 kts | 260° |
| 2026-04-27 07:28 | 31.38547 | 122.90237 | 28925 ft | 407 kts | 259° |
| 2026-04-27 07:28 | 31.37922 | 122.87009 | 28523 ft | 408 kts | 259° |
| 2026-04-27 07:29 | 31.37291 | 122.83762 | 28123 ft | 409 kts | 259° |
| 2026-04-27 07:29 | 31.36661 | 122.80521 | 27719 ft | 411 kts | 259° |
| 2026-04-27 07:29 | 31.36028 | 122.77274 | 27315 ft | 413 kts | 259° |
| 2026-04-27 07:29 | 31.35399 | 122.74001 | 26914 ft | 414 kts | 259° |
| 2026-04-27 07:30 | 31.34777 | 122.70733 | 26515 ft | 416 kts | 259° |
| 2026-04-27 07:30 | 31.34153 | 122.67445 | 26111 ft | 417 kts | 259° |
| 2026-04-27 07:30 | 31.33519 | 122.64114 | 25705 ft | 419 kts | 259° |
| 2026-04-27 07:30 | 31.32881 | 122.60785 | 25305 ft | 421 kts | 259° |
| 2026-04-27 07:31 | 31.32253 | 122.57489 | 24909 ft | 422 kts | 259° |
| 2026-04-27 07:31 | 31.31607 | 122.54111 | 24504 ft | 424 kts | 259° |
| 2026-04-27 07:31 | 31.30967 | 122.50779 | 24109 ft | 427 kts | 259° |
| 2026-04-27 07:31 | 31.30314 | 122.47388 | 23723 ft | 428 kts | 259° |
| 2026-04-27 07:32 | 31.29662 | 122.44004 | 23335 ft | 429 kts | 259° |
| 2026-04-27 07:32 | 31.29016 | 122.40603 | 22946 ft | 428 kts | 259° |
| 2026-04-27 07:32 | 31.28383 | 122.37231 | 22566 ft | 425 kts | 259° |
| 2026-04-27 07:32 | 31.27746 | 122.33855 | 22195 ft | 424 kts | 258° |
| 2026-04-27 07:33 | 31.27117 | 122.30527 | 21805 ft | 422 kts | 258° |
| 2026-04-27 07:33 | 31.26492 | 122.27219 | 21381 ft | 421 kts | 258° |
| 2026-04-27 07:33 | 31.25864 | 122.23888 | 20961 ft | 419 kts | 258° |
| 2026-04-27 07:33 | 31.25241 | 122.20599 | 20535 ft | 416 kts | 258° |
| 2026-04-27 07:34 | 31.24617 | 122.17304 | 20105 ft | 414 kts | 258° |
| 2026-04-27 07:34 | 31.23998 | 122.14050 | 19683 ft | 412 kts | 258° |
| 2026-04-27 07:34 | 31.23372 | 122.10754 | 19215 ft | 411 kts | 258° |
| 2026-04-27 07:34 | 31.22760 | 122.07542 | 18700 ft | 408 kts | 258° |
| 2026-04-27 07:35 | 31.22142 | 122.04308 | 18090 ft | 404 kts | 258° |
| 2026-04-27 07:35 | 31.21544 | 122.01180 | 17436 ft | 399 kts | 258° |
| 2026-04-27 07:35 | 31.20938 | 121.98011 | 16783 ft | 396 kts | 258° |
| 2026-04-27 07:35 | 31.20349 | 121.94933 | 16175 ft | 392 kts | 259° |
| 2026-04-27 07:36 | 31.19749 | 121.91807 | 15512 ft | 390 kts | 258° |
| 2026-04-27 07:36 | 31.19164 | 121.88753 | 14849 ft | 388 kts | 258° |
| 2026-04-27 07:36 | 31.18580 | 121.85714 | 14269 ft | 382 kts | 258° |
| 2026-04-27 07:36 | 31.18006 | 121.82746 | 13581 ft | 368 kts | 258° |
| 2026-04-27 07:37 | 31.17468 | 121.79904 | 12901 ft | 351 kts | 259° |
| 2026-04-27 07:37 | 31.17049 | 121.77194 | 12363 ft | 330 kts | 262° |
| 2026-04-27 07:37 | 31.16755 | 121.74647 | 12061 ft | 307 kts | 264° |
| 2026-04-27 07:37 | 31.16498 | 121.72283 | 11804 ft | 285 kts | 264° |
| 2026-04-27 07:38 | 31.16253 | 121.70022 | 11565 ft | 281 kts | 264° |
| 2026-04-27 07:38 | 31.16008 | 121.67741 | 11368 ft | 279 kts | 264° |
| 2026-04-27 07:38 | 31.15768 | 121.65516 | 11072 ft | 280 kts | 264° |
| 2026-04-27 07:38 | 31.15522 | 121.63257 | 10823 ft | 279 kts | 264° |
| 2026-04-27 07:39 | 31.15283 | 121.61063 | 10575 ft | 273 kts | 264° |
| 2026-04-27 07:39 | 31.15046 | 121.58890 | 10352 ft | 266 kts | 264° |
| 2026-04-27 07:39 | 31.14815 | 121.56778 | 10156 ft | 260 kts | 264° |
| 2026-04-27 07:39 | 31.14588 | 121.54707 | 9963 ft | 254 kts | 265° |
| 2026-04-27 07:40 | 31.14370 | 121.52710 | 9758 ft | 248 kts | 265° |
| 2026-04-27 07:40 | 31.14154 | 121.50750 | 9468 ft | 242 kts | 265° |
| 2026-04-27 07:40 | 31.13941 | 121.48798 | 9251 ft | 240 kts | 265° |
| 2026-04-27 07:40 | 31.13733 | 121.46883 | 9075 ft | 241 kts | 265° |
| 2026-04-27 07:41 | 31.13518 | 121.44923 | 8799 ft | 241 kts | 265° |
| 2026-04-27 07:41 | 31.13304 | 121.42993 | 8582 ft | 239 kts | 265° |
| 2026-04-27 07:41 | 31.13094 | 121.41088 | 8377 ft | 239 kts | 265° |
| 2026-04-27 07:41 | 31.12883 | 121.39185 | 8179 ft | 238 kts | 265° |
| 2026-04-27 07:42 | 31.12670 | 121.37271 | 7947 ft | 237 kts | 265° |
| 2026-04-27 07:42 | 31.12518 | 121.35363 | 7707 ft | 235 kts | 276° |
| 2026-04-27 07:42 | 31.12894 | 121.33559 | 7491 ft | 232 kts | 296° |
| 2026-04-27 07:42 | 31.13796 | 121.32001 | 7281 ft | 232 kts | 308° |
| 2026-04-27 07:43 | 31.14832 | 121.30551 | 7064 ft | 231 kts | 309° |
| 2026-04-27 07:43 | 31.15858 | 121.29123 | 6850 ft | 230 kts | 309° |
| 2026-04-27 07:43 | 31.16891 | 121.27670 | 6631 ft | 230 kts | 309° |
| 2026-04-27 07:43 | 31.17900 | 121.26242 | 6420 ft | 230 kts | 308° |
| 2026-04-27 07:44 | 31.18917 | 121.24796 | 6206 ft | 230 kts | 308° |
| 2026-04-27 07:44 | 31.20006 | 121.23449 | 5991 ft | 230 kts | 323° |
| 2026-04-27 07:44 | 31.21463 | 121.22682 | 5773 ft | 233 kts | 347° |
| 2026-04-27 07:44 | 31.23091 | 121.22510 | 5559 ft | 236 kts | 354° |
| 2026-04-27 07:45 | 31.24733 | 121.22440 | 5346 ft | 236 kts | 355° |
| 2026-04-27 07:45 | 31.26380 | 121.22373 | 5163 ft | 235 kts | 355° |
| 2026-04-27 07:45 | 31.27998 | 121.22298 | 4951 ft | 235 kts | 355° |
| 2026-04-27 07:45 | 31.29651 | 121.22215 | 4722 ft | 234 kts | 354° |
| 2026-04-27 07:46 | 31.31279 | 121.22129 | 4536 ft | 234 kts | 354° |
| 2026-04-27 07:46 | 31.32901 | 121.22042 | 4341 ft | 234 kts | 355° |
| 2026-04-27 07:46 | 31.34515 | 121.21954 | 4141 ft | 234 kts | 355° |
| 2026-04-27 07:46 | 31.36159 | 121.21868 | 3931 ft | 234 kts | 356° |
| 2026-04-27 07:47 | 31.37762 | 121.22194 | 3667 ft | 239 kts | 28° |
| 2026-04-27 07:47 | 31.38876 | 121.23581 | 3442 ft | 241 kts | 67° |
| 2026-04-27 07:47 | 31.39034 | 121.25500 | 3233 ft | 236 kts | 100° |
| 2026-04-27 07:47 | 31.38716 | 121.27339 | 3028 ft | 231 kts | 101° |
| 2026-04-27 07:48 | 31.38475 | 121.29186 | 2803 ft | 226 kts | 96° |
| 2026-04-27 07:48 | 31.38257 | 121.30978 | 2573 ft | 222 kts | 112° |
| 2026-04-27 07:48 | 31.37372 | 121.32405 | 2338 ft | 214 kts | 148° |
| 2026-04-27 07:48 | 31.36031 | 121.32965 | 2115 ft | 203 kts | 177° |
| 2026-04-27 07:49 | 31.34663 | 121.32982 | 1923 ft | 187 kts | 183° |
| 2026-04-27 07:49 | 31.33415 | 121.32950 | 1798 ft | 170 kts | 181° |
| 2026-04-27 07:49 | 31.32308 | 121.32967 | 1804 ft | 154 kts | 180° |
| 2026-04-27 07:49 | 31.31260 | 121.33009 | 1779 ft | 144 kts | 179° |
| 2026-04-27 07:50 | 31.30261 | 121.33061 | 1690 ft | 144 kts | 179° |
| 2026-04-27 07:50 | 31.29269 | 121.33116 | 1503 ft | 143 kts | 179° |
| 2026-04-27 07:50 | 31.28275 | 121.33170 | 1327 ft | 142 kts | 179° |
| 2026-04-27 07:50 | 31.27289 | 121.33225 | 1149 ft | 142 kts | 179° |
| 2026-04-27 07:51 | 31.26304 | 121.33278 | 976 ft | 141 kts | 178° |
| 2026-04-27 07:51 | 31.25315 | 121.33333 | 788 ft | 141 kts | 179° |
| 2026-04-27 07:51 | 31.24344 | 121.33384 | 617 ft | 140 kts | 178° |
| 2026-04-27 07:51 | 31.23369 | 121.33437 | 441 ft | 139 kts | 178° |
| 2026-04-27 07:52 | 31.22406 | 121.33489 | 266 ft | 139 kts | 178° |
| 2026-04-27 07:52 | 31.21446 | 121.33543 | 82 ft | 140 kts | 180° |
| 2026-04-27 07:52 | 31.20498 | 121.33560 | 21 ft | 128 kts | 182° |
| 2026-04-27 07:52 | 31.19586 | 121.33472 | 297 ft | 135 kts | 186° |
| 2026-04-27 07:53 | 31.18612 | 121.33369 | 499 ft | 142 kts | 187° |
| 2026-04-27 07:53 | 31.17623 | 121.33353 | 421 ft | 142 kts | 182° |
| 2026-04-27 07:53 | 31.16634 | 121.33278 | 479 ft | 141 kts | 187° |
| 2026-04-27 07:53 | 31.15620 | 121.33176 | 740 ft | 151 kts | 186° |
| 2026-04-27 07:54 | 31.14559 | 121.33068 | 1077 ft | 153 kts | 185° |
| 2026-04-27 07:54 | 31.13487 | 121.33023 | 1432 ft | 154 kts | 175° |
| 2026-04-27 07:54 | 31.12442 | 121.33276 | 1793 ft | 156 kts | 166° |
| 2026-04-27 07:54 | 31.11396 | 121.33636 | 2149 ft | 157 kts | 165° |
| 2026-04-27 07:55 | 31.10347 | 121.33979 | 2497 ft | 158 kts | 178° |
| 2026-04-27 07:55 | 31.09361 | 121.33574 | 2836 ft | 154 kts | 233° |
| 2026-04-27 07:55 | 31.09058 | 121.32410 | 2989 ft | 154 kts | 276° |
| 2026-04-27 07:55 | 31.09485 | 121.31295 | 2991 ft | 154 kts | 313° |
| 2026-04-27 07:56 | 31.10429 | 121.30706 | 2995 ft | 158 kts | 342° |
| 2026-04-27 07:56 | 31.11501 | 121.30398 | 2996 ft | 158 kts | 344° |
| 2026-04-27 07:56 | 31.12580 | 121.30082 | 2991 ft | 158 kts | 343° |
| 2026-04-27 07:56 | 31.13633 | 121.29760 | 2989 ft | 158 kts | 342° |
| 2026-04-27 07:57 | 31.14699 | 121.29424 | 2988 ft | 158 kts | 342° |
| 2026-04-27 07:57 | 31.15768 | 121.29083 | 2987 ft | 158 kts | 342° |
| 2026-04-27 07:57 | 31.16822 | 121.28745 | 2987 ft | 158 kts | 342° |
| 2026-04-27 07:57 | 31.17889 | 121.28401 | 2988 ft | 157 kts | 342° |
| 2026-04-27 07:58 | 31.18942 | 121.28059 | 2987 ft | 156 kts | 342° |
| 2026-04-27 07:58 | 31.19994 | 121.27716 | 2986 ft | 156 kts | 342° |
| 2026-04-27 07:58 | 31.21038 | 121.27376 | 2989 ft | 157 kts | 341° |
| 2026-04-27 07:58 | 31.22089 | 121.27035 | 2869 ft | 156 kts | 341° |
| 2026-04-27 07:59 | 31.23143 | 121.26689 | 2779 ft | 156 kts | 342° |
| 2026-04-27 07:59 | 31.25251 | 121.26001 | 2783 ft | 157 kts | 341° |
| 2026-04-27 07:59 | 31.26318 | 121.25652 | 2782 ft | 157 kts | 342° |
| 2026-04-27 08:00 | 31.27371 | 121.25307 | 2784 ft | 157 kts | 342° |
| 2026-04-27 08:00 | 31.28434 | 121.24960 | 2797 ft | 157 kts | 342° |
| 2026-04-27 08:00 | 31.29481 | 121.24617 | 2803 ft | 157 kts | 342° |
| 2026-04-27 08:00 | 31.30529 | 121.24275 | 2805 ft | 157 kts | 342° |
| 2026-04-27 08:01 | 31.31586 | 121.23930 | 2806 ft | 156 kts | 342° |
| 2026-04-27 08:01 | 31.32637 | 121.23587 | 2815 ft | 156 kts | 341° |
| 2026-04-27 08:01 | 31.33686 | 121.23244 | 2701 ft | 156 kts | 342° |
| 2026-04-27 08:01 | 31.34725 | 121.22903 | 2568 ft | 156 kts | 341° |
| 2026-04-27 08:02 | 31.35779 | 121.22559 | 2427 ft | 156 kts | 343° |
| 2026-04-27 08:02 | 31.36859 | 121.22500 | 2266 ft | 160 kts | 14° |
| 2026-04-27 08:02 | 31.37818 | 121.23172 | 2133 ft | 163 kts | 48° |
| 2026-04-27 08:02 | 31.38316 | 121.24352 | 2017 ft | 163 kts | 83° |
| 2026-04-27 08:03 | 31.38360 | 121.25659 | 1916 ft | 162 kts | 92° |
| 2026-04-27 08:03 | 31.38329 | 121.26975 | 1798 ft | 161 kts | 93° |
| 2026-04-27 08:03 | 31.38300 | 121.28284 | 1793 ft | 161 kts | 92° |
| 2026-04-27 08:03 | 31.38285 | 121.29604 | 1782 ft | 162 kts | 92° |
| 2026-04-27 08:04 | 31.38280 | 121.30928 | 1790 ft | 162 kts | 91° |
| 2026-04-27 08:04 | 31.38021 | 121.32159 | 1773 ft | 159 kts | 130° |
| 2026-04-27 08:04 | 31.37118 | 121.32809 | 1782 ft | 155 kts | 171° |
| 2026-04-27 08:04 | 31.36046 | 121.32907 | 1789 ft | 153 kts | 182° |
| 2026-04-27 08:05 | 31.34970 | 121.32893 | 1793 ft | 154 kts | 182° |
| 2026-04-27 08:05 | 31.33879 | 121.32896 | 1818 ft | 158 kts | 181° |
| 2026-04-27 08:05 | 31.32812 | 121.32927 | 1793 ft | 146 kts | 179° |
| 2026-04-27 08:05 | 31.31805 | 121.32974 | 1784 ft | 144 kts | 180° |
| 2026-04-27 08:06 | 31.30803 | 121.33028 | 1768 ft | 144 kts | 180° |
| 2026-04-27 08:06 | 31.29797 | 121.33084 | 1600 ft | 143 kts | 179° |
| 2026-04-27 08:06 | 31.28808 | 121.33140 | 1425 ft | 142 kts | 179° |
| 2026-04-27 08:06 | 31.27884 | 121.33191 | 1256 ft | 142 kts | 179° |
| 2026-04-27 08:07 | 31.26868 | 121.33247 | 1080 ft | 142 kts | 179° |
| 2026-04-27 08:07 | 31.25883 | 121.33301 | 903 ft | 142 kts | 179° |
| 2026-04-27 08:07 | 31.24887 | 121.33355 | 718 ft | 142 kts | 178° |
| 2026-04-27 08:07 | 31.23915 | 121.33408 | 532 ft | 140 kts | 179° |
| 2026-04-27 08:08 | 31.22938 | 121.33459 | 363 ft | 140 kts | 178° |
| 2026-04-27 08:08 | 31.21973 | 121.33514 | 174 ft | 140 kts | 180° |
| 2026-04-27 08:08 | 31.20980 | 121.33568 | 25 ft | 140 kts | 178° |
| 2026-04-27 08:08 | 31.20151 | 121.33607 | 15 ft | 96 kts | 175° |
| 2026-04-27 08:09 | 31.19651 | 121.33635 | 16 ft | 46 kts | 178° |
| 2026-04-27 08:09 | 31.19385 | 121.33648 | 13 ft | 36 kts | 176° |
| 2026-04-27 08:09 | 31.19165 | 121.33663 | 12 ft | 23 kts | 177° |
| 2026-04-27 08:09 | 31.19021 | 121.33693 | 12 ft | 20 kts | 161° |
| 2026-04-27 08:10 | 31.18907 | 121.33759 | 14 ft | 12 kts | 148° |
| 2026-04-27 08:10 | 31.18835 | 121.33811 | 15 ft | 11 kts | 147° |
| 2026-04-27 08:10 | 31.18786 | 121.33848 | 15 ft | 5 kts | 147° |
| 2026-04-27 08:10 | 31.18753 | 121.33883 | 15 ft | 7 kts | 116° |
| 2026-04-27 08:11 | 31.18746 | 121.33944 | 15 ft | 8 kts | 88° |
| 2026-04-27 08:11 | 31.18762 | 121.34010 | 15 ft | 9 kts | 40° |
| 2026-04-27 08:11 | 31.18830 | 121.34019 | 15 ft | 10 kts | 357° |
| 2026-04-27 08:11 | 31.18910 | 121.34015 | 14 ft | 12 kts | 357° |
| 2026-04-27 08:12 | 31.19006 | 121.34010 | 12 ft | 14 kts | 357° |
| 2026-04-27 08:12 | 31.19115 | 121.34004 | 10 ft | 16 kts | 357° |
| 2026-04-27 08:12 | 31.19239 | 121.33998 | 9 ft | 17 kts | 357° |
| 2026-04-27 08:12 | 31.19360 | 121.33991 | 9 ft | 17 kts | 357° |
| 2026-04-27 08:13 | 31.19477 | 121.33985 | 11 ft | 16 kts | 358° |
| 2026-04-27 08:13 | 31.19585 | 121.33980 | 13 ft | 15 kts | 356° |
| 2026-04-27 08:13 | 31.19687 | 121.33974 | 15 ft | 14 kts | 357° |
| 2026-04-27 08:13 | 31.19785 | 121.33968 | 17 ft | 14 kts | 357° |
| 2026-04-27 08:14 | 31.19885 | 121.33963 | 17 ft | 14 kts | 357° |
| 2026-04-27 08:14 | 31.19985 | 121.33958 | 15 ft | 8 kts | 1° |
| 2026-04-27 08:14 | 31.20018 | 121.34018 | 15 ft | 10 kts | 86° |
| 2026-04-27 08:14 | 31.20021 | 121.34094 | 17 ft | 7 kts | 95° |
| 2026-04-27 08:15 | 31.19978 | 121.34126 | 17 ft | 8 kts | 177° |
| 2026-04-27 08:15 | 31.19920 | 121.34135 | 17 ft | 5 kts | 141° |
| 2026-04-27 08:15 | 31.19901 | 121.34176 | 18 ft | 5 kts | 130° |
| 2026-04-27 08:15 | 31.19863 | 121.34193 | 19 ft | 6 kts | 177° |
| 2026-04-27 08:16 | 31.19837 | 121.34195 | 19 ft | 0 kts | 178° |
| 2026-04-27 08:16 | 31.19830 | 121.34195 | 19 ft | 1 kts | 177° |
| 2026-04-27 08:16 | 31.19823 | 121.34196 | 19 ft | 1 kts | 177° |
| 2026-04-27 08:16 | 31.19822 | 121.34196 | 19 ft | 0 kts | 177° |